Time;durP1;ratioP1;P1;durP2;ratioP2;P2;SDS_P1;SDS_P2;PMS_P1;PMS_P2;Temp;Humidity;BMP_temperature;BMP_pressure;BME280_temperature;BME280_humidity;BME280_pressure;Samples;Min_cycle;Max_cycle;Signal;HPM_P1;HPM_P2
2021/09/06 00:01:45;;;;;;;;;18.00;16.75;;;;;-147.91;100.00;58652.34;5089013;27;45576;-82
2021/09/06 00:04:11;;;;;;;;;20.75;19.25;;;;;-147.91;100.00;58652.34;5087495;27;45460;-82
2021/09/06 00:06:40;;;;;;;;;19.00;16.50;;;;;-147.91;100.00;58652.34;5085209;27;45555;-82
2021/09/06 00:09:06;;;;;;;;;22.50;18.50;;;;;-147.91;100.00;58652.34;5087483;27;45666;-82
2021/09/06 00:11:32;;;;;;;;;20.75;18.75;;;;;-147.91;100.00;58652.34;5080008;27;46214;-82
2021/09/06 00:13:57;;;;;;;;;18.75;18.75;;;;;-147.91;100.00;58652.34;5067425;27;45821;-82
2021/09/06 00:16:23;;;;;;;;;20.50;19.00;;;;;-147.91;100.00;58652.34;5088637;27;46351;-82
2021/09/06 00:18:48;;;;;;;;;22.50;17.50;;;;;-147.91;100.00;58652.34;5080577;27;45574;-80
2021/09/06 00:21:14;;;;;;;;;23.25;21.00;;;;;-147.91;100.00;58652.34;5085471;27;46323;-80
2021/09/06 00:23:40;;;;;;;;;20.75;19.50;;;;;-147.91;100.00;58652.34;5083570;27;46476;-80
2021/09/06 00:26:06;;;;;;;;;19.25;17.00;;;;;-147.91;100.00;58652.34;5083858;27;45539;-81
2021/09/06 00:28:31;;;;;;;;;20.75;17.75;;;;;-147.91;100.00;58652.34;5088102;27;47362;-80
2021/09/06 00:30:57;;;;;;;;;16.75;16.50;;;;;-147.91;100.00;58652.34;5082152;27;47216;-80
2021/09/06 00:33:23;;;;;;;;;18.00;16.75;;;;;-147.91;100.00;58652.34;5087543;27;45808;-80
2021/09/06 00:35:49;;;;;;;;;18.75;16.50;;;;;-147.91;100.00;58652.34;5086692;27;45659;-80
2021/09/06 00:38:19;;;;;;;;;19.25;18.25;;;;;-147.91;100.00;58652.34;5083624;27;45492;-81
2021/09/06 00:40:46;;;;;;;;;17.75;17.75;;;;;-147.91;100.00;58652.34;5087356;27;45796;-80
2021/09/06 00:43:11;;;;;;;;;19.25;18.00;;;;;-147.91;100.00;58652.34;5081809;27;45535;-80
2021/09/06 00:45:37;;;;;;;;;20.25;18.75;;;;;-147.91;100.00;58652.34;5085380;27;45714;-81
2021/09/06 00:48:04;;;;;;;;;21.50;17.00;;;;;-147.91;100.00;58652.34;5089469;27;46248;-80
2021/09/06 00:50:30;;;;;;;;;20.75;18.00;;;;;-147.91;100.00;58652.34;5084542;27;46527;-81
2021/09/06 00:52:55;;;;;;;;;17.50;16.75;;;;;-147.91;100.00;58652.34;5084747;27;46239;-81
2021/09/06 00:55:22;;;;;;;;;18.50;17.50;;;;;-147.91;100.00;58652.34;5086420;27;45943;-81
2021/09/06 00:57:48;;;;;;;;;18.75;17.75;;;;;-147.91;100.00;58652.34;5064514;27;46101;-81
2021/09/06 01:00:15;;;;;;;;;19.00;15.75;;;;;-147.91;100.00;58652.34;5087735;27;46703;-80
2021/09/06 01:02:41;;;;;;;;;18.75;15.75;;;;;-147.91;100.00;58652.34;5083245;27;45741;-80
2021/09/06 01:05:07;;;;;;;;;20.00;18.00;;;;;-147.91;100.00;58652.34;5084519;27;45511;-80
2021/09/06 01:07:33;;;;;;;;;17.00;15.50;;;;;-147.91;100.00;58652.34;5070362;27;45613;-80
2021/09/06 01:10:04;;;;;;;;;12.50;12.00;;;;;-147.91;100.00;58652.34;5082799;27;46401;-81
2021/09/06 01:12:29;;;;;;;;;17.00;15.25;;;;;-147.91;100.00;58652.34;5078512;27;45597;-80
2021/09/06 01:14:55;;;;;;;;;18.25;14.25;;;;;-147.91;100.00;58652.34;5077592;27;45567;-81
2021/09/06 01:17:20;;;;;;;;;18.75;18.00;;;;;-147.91;100.00;58652.34;5076033;27;46299;-80
2021/09/06 01:19:46;;;;;;;;;16.75;16.75;;;;;-147.91;100.00;58652.34;5080844;27;46546;-80
2021/09/06 01:22:11;;;;;;;;;20.00;20.00;;;;;-147.91;100.00;58652.34;5077634;27;45475;-80
2021/09/06 01:24:37;;;;;;;;;22.75;18.25;;;;;-147.91;100.00;58652.34;5078625;27;45723;-80
2021/09/06 01:27:02;;;;;;;;;16.75;15.75;;;;;-147.91;100.00;58652.34;5066067;27;45565;-81
2021/09/06 01:29:28;;;;;;;;;21.50;18.00;;;;;-147.91;100.00;58652.34;5080116;27;46028;-81
2021/09/06 01:31:54;;;;;;;;;18.75;17.50;;;;;-147.91;100.00;58652.34;5087784;27;46096;-80
2021/09/06 01:34:19;;;;;;;;;18.00;17.00;;;;;-147.91;100.00;58652.34;5083902;27;46148;-80
2021/09/06 01:36:45;;;;;;;;;17.00;16.25;;;;;-147.91;100.00;58652.34;5083266;27;45507;-80
2021/09/06 01:39:10;;;;;;;;;19.25;15.75;;;;;-147.91;100.00;58652.34;5086112;27;45570;-81
2021/09/06 01:41:36;;;;;;;;;17.50;15.50;;;;;-147.91;100.00;58652.34;5084069;27;45496;-80
2021/09/06 01:44:02;;;;;;;;;16.75;15.00;;;;;-147.91;100.00;58652.34;5083809;27;45738;-81
2021/09/06 01:46:32;;;;;;;;;17.50;16.50;;;;;-147.91;100.00;58652.34;5087608;27;45692;-81
2021/09/06 01:48:58;;;;;;;;;19.00;17.00;;;;;-147.91;100.00;58652.34;5060676;27;45545;-80
2021/09/06 01:51:25;;;;;;;;;17.00;15.50;;;;;-147.91;100.00;58652.34;5086831;27;45621;-81
2021/09/06 01:53:51;;;;;;;;;18.50;15.00;;;;;-147.91;100.00;58652.34;5083301;27;45569;-80
2021/09/06 01:56:17;;;;;;;;;19.25;18.25;;;;;-147.91;100.00;58652.34;5064297;27;53835;-80
2021/09/06 01:58:42;;;;;;;;;18.75;17.50;;;;;-147.91;100.00;58652.34;5064878;27;47475;-80
2021/09/06 02:01:07;;;;;;;;;17.00;16.50;;;;;-147.91;100.00;58652.34;5078436;27;46399;-81
2021/09/06 02:03:33;;;;;;;;;16.00;15.75;;;;;-147.91;100.00;58652.34;5058210;27;45617;-80
2021/09/06 02:05:58;;;;;;;;;17.25;14.00;;;;;-147.91;100.00;58652.34;5081202;27;45988;-80
2021/09/06 02:08:24;;;;;;;;;19.25;17.50;;;;;-147.91;100.00;58652.34;5075353;27;47068;-81
2021/09/06 02:10:49;;;;;;;;;18.75;17.50;;;;;-147.91;100.00;58652.34;5081962;27;45646;-81
2021/09/06 02:13:15;;;;;;;;;18.50;18.00;;;;;-147.91;100.00;58652.34;5077547;27;45638;-80
2021/09/06 02:15:40;;;;;;;;;17.50;14.75;;;;;-147.91;100.00;58652.34;5060474;27;46217;-81
2021/09/06 02:18:06;;;;;;;;;16.75;15.50;;;;;-147.91;100.00;58652.34;5080152;27;45617;-82
2021/09/06 02:20:31;;;;;;;;;21.50;18.25;;;;;-147.91;100.00;58652.34;5076049;27;45630;-82
2021/09/06 02:22:56;;;;;;;;;17.75;17.75;;;;;-147.91;100.00;58652.34;5087502;27;45677;-82
2021/09/06 02:25:22;;;;;;;;;14.50;11.25;;;;;-147.91;100.00;58652.34;5083345;27;45572;-82
2021/09/06 02:27:47;;;;;;;;;20.00;17.50;;;;;-147.91;100.00;58652.34;5075408;27;45680;-81
2021/09/06 02:30:13;;;;;;;;;16.50;16.50;;;;;-147.91;100.00;58652.34;5087179;27;50010;-82
2021/09/06 02:32:38;;;;;;;;;19.25;16.75;;;;;-147.91;100.00;58652.34;5081839;27;45771;-82
2021/09/06 02:35:05;;;;;;;;;20.00;18.50;;;;;-147.91;100.00;58652.34;5081296;27;45578;-82
2021/09/06 02:37:30;;;;;;;;;19.25;16.25;;;;;-147.91;100.00;58652.34;5079654;27;45661;-82
2021/09/06 02:39:56;;;;;;;;;19.75;17.00;;;;;-147.91;100.00;58652.34;5080440;27;45663;-82
2021/09/06 02:42:21;;;;;;;;;16.00;16.00;;;;;-147.91;100.00;58652.34;5086959;27;45620;-82
2021/09/06 02:44:46;;;;;;;;;19.00;17.00;;;;;-147.91;100.00;58652.34;5083326;27;45301;-81
2021/09/06 02:47:12;;;;;;;;;18.00;16.75;;;;;-147.91;100.00;58652.34;5083630;27;46720;-82
2021/09/06 02:49:37;;;;;;;;;18.50;16.00;;;;;-147.91;100.00;58652.34;5086179;27;46085;-82
2021/09/06 02:52:03;;;;;;;;;20.00;14.75;;;;;-147.91;100.00;58652.34;5082062;27;45874;-82
2021/09/06 02:54:29;;;;;;;;;18.50;16.25;;;;;-147.91;100.00;58652.34;5076982;27;45947;-82
2021/09/06 02:56:54;;;;;;;;;18.50;16.25;;;;;-147.91;100.00;58652.34;5085754;27;45902;-82
2021/09/06 02:59:20;;;;;;;;;18.00;17.25;;;;;-147.91;100.00;58652.34;5081952;27;45941;-82
2021/09/06 03:01:45;;;;;;;;;19.00;18.50;;;;;-147.91;100.00;58652.34;5086073;27;47779;-82
2021/09/06 03:04:11;;;;;;;;;22.75;18.00;;;;;-147.91;100.00;58652.34;5083058;27;47049;-82
2021/09/06 03:06:36;;;;;;;;;17.00;17.00;;;;;-147.91;100.00;58652.34;5079847;27;45816;-81
2021/09/06 03:09:02;;;;;;;;;17.00;14.75;;;;;-147.91;100.00;58652.34;5053782;27;45706;-81
2021/09/06 03:11:27;;;;;;;;;18.50;16.25;;;;;-147.91;100.00;58652.34;5080143;27;45582;-82
2021/09/06 03:13:54;;;;;;;;;17.75;17.25;;;;;-147.91;100.00;58652.34;5078084;27;46692;-82
2021/09/06 03:16:21;;;;;;;;;21.50;17.00;;;;;-147.91;100.00;58652.34;5083251;27;45590;-81
2021/09/06 03:18:48;;;;;;;;;17.25;15.25;;;;;-147.91;100.00;58652.34;5082257;27;45684;-80
2021/09/06 03:21:13;;;;;;;;;19.25;18.25;;;;;-147.91;100.00;58652.34;5066446;27;45846;-80
2021/09/06 03:23:38;;;;;;;;;18.75;17.25;;;;;-147.91;100.00;58652.34;5076640;27;46073;-80
2021/09/06 03:26:04;;;;;;;;;18.50;17.75;;;;;-147.91;100.00;58652.34;5084167;27;46237;-81
2021/09/06 03:28:29;;;;;;;;;21.00;16.25;;;;;-147.91;100.00;58652.34;5084859;27;45562;-80
2021/09/06 03:30:54;;;;;;;;;22.00;17.75;;;;;-147.91;100.00;58652.34;5078593;27;45592;-81
2021/09/06 03:33:20;;;;;;;;;19.00;15.75;;;;;-147.91;100.00;58652.34;5086117;27;45516;-80
2021/09/06 03:35:45;;;;;;;;;19.25;16.25;;;;;-147.91;100.00;58652.34;5079147;27;45687;-80
2021/09/06 03:38:11;;;;;;;;;20.50;19.50;;;;;-147.91;100.00;58652.34;5082132;27;45797;-81
2021/09/06 03:40:36;;;;;;;;;19.50;17.75;;;;;-147.91;100.00;58652.34;5084162;27;46097;-81
2021/09/06 03:43:03;;;;;;;;;18.00;16.75;;;;;-147.91;100.00;58652.34;5076114;27;46185;-80
2021/09/06 03:45:28;;;;;;;;;20.00;18.25;;;;;-147.91;100.00;58652.34;5086612;27;49401;-81
2021/09/06 03:47:53;;;;;;;;;17.75;16.50;;;;;-147.91;100.00;58652.34;5084405;27;46102;-81
2021/09/06 03:50:19;;;;;;;;;18.75;16.75;;;;;-147.91;100.00;58652.34;5078857;27;46349;-80
2021/09/06 03:52:44;;;;;;;;;18.50;17.50;;;;;-147.91;100.00;58652.34;5082919;27;45548;-80
2021/09/06 03:55:10;;;;;;;;;20.00;17.00;;;;;-147.91;100.00;58652.34;5080443;27;47038;-81
2021/09/06 03:57:36;;;;;;;;;19.25;17.50;;;;;-147.91;100.00;58652.34;5077087;27;45600;-81
2021/09/06 04:00:03;;;;;;;;;19.50;19.50;;;;;-147.91;100.00;58652.34;5067377;27;45699;-80
2021/09/06 04:02:28;;;;;;;;;20.75;17.75;;;;;-147.91;100.00;58652.34;5080401;27;45611;-80
2021/09/06 04:04:55;;;;;;;;;20.00;16.50;;;;;-147.91;100.00;58652.34;5085167;27;45659;-81
2021/09/06 04:07:20;;;;;;;;;23.75;18.75;;;;;-147.91;100.00;58652.34;5082881;27;45612;-80
2021/09/06 04:09:46;;;;;;;;;20.75;18.75;;;;;-147.91;100.00;58652.34;5080283;27;45606;-80
2021/09/06 04:12:11;;;;;;;;;19.00;17.00;;;;;-147.91;100.00;58652.34;5082831;27;45546;-81
2021/09/06 04:14:37;;;;;;;;;21.50;19.75;;;;;-147.91;100.00;58652.34;5075991;27;45528;-81
2021/09/06 04:17:03;;;;;;;;;19.75;18.25;;;;;-147.91;100.00;58652.34;5082282;27;47037;-81
2021/09/06 04:19:31;;;;;;;;;23.75;19.75;;;;;-147.91;100.00;58652.34;5089331;27;45546;-81
2021/09/06 04:22:00;;;;;;;;;21.75;18.50;;;;;-147.91;100.00;58652.34;5055315;27;45578;-81
2021/09/06 04:24:26;;;;;;;;;21.00;18.50;;;;;-147.91;100.00;58652.34;5086002;27;45663;-81
2021/09/06 04:26:52;;;;;;;;;20.75;19.75;;;;;-147.91;100.00;58652.34;5086149;27;47576;-81
2021/09/06 04:29:18;;;;;;;;;22.50;17.50;;;;;-147.91;100.00;58652.34;5081833;27;46335;-81
2021/09/06 04:31:43;;;;;;;;;24.50;20.25;;;;;-147.91;100.00;58652.34;5087280;27;45553;-81
2021/09/06 04:34:09;;;;;;;;;24.25;17.50;;;;;-147.91;100.00;58652.34;5082087;27;46022;-80
2021/09/06 04:36:34;;;;;;;;;17.25;15.50;;;;;-147.91;100.00;58652.34;5083432;27;45641;-81
2021/09/06 04:39:00;;;;;;;;;19.75;18.75;;;;;-147.91;100.00;58652.34;5080776;27;45510;-81
2021/09/06 04:41:26;;;;;;;;;23.50;20.50;;;;;-147.91;100.00;58652.34;5081449;27;51183;-80
2021/09/06 04:43:51;;;;;;;;;25.50;21.75;;;;;-147.91;100.00;58652.34;5084298;27;46281;-81
2021/09/06 04:46:17;;;;;;;;;23.00;19.50;;;;;-147.91;100.00;58652.34;5078689;27;45673;-81
2021/09/06 04:48:42;;;;;;;;;26.25;22.00;;;;;-147.91;100.00;58652.34;5081644;27;45538;-81
2021/09/06 04:51:08;;;;;;;;;25.75;21.25;;;;;-147.91;100.00;58652.34;5083030;27;45505;-80
2021/09/06 04:53:33;;;;;;;;;21.25;20.50;;;;;-147.91;100.00;58652.34;5077460;27;45510;-81
2021/09/06 04:55:59;;;;;;;;;25.00;20.75;;;;;-147.91;100.00;58652.34;5086529;27;45550;-80
2021/09/06 04:58:24;;;;;;;;;27.00;25.00;;;;;-147.91;100.00;58652.34;5077263;27;48337;-80
2021/09/06 05:00:50;;;;;;;;;23.25;17.50;;;;;-147.91;100.00;58652.34;5078299;27;45547;-81
2021/09/06 05:03:15;;;;;;;;;24.50;20.75;;;;;-147.91;100.00;58652.34;5084859;27;45590;-80
2021/09/06 05:05:40;;;;;;;;;24.00;22.50;;;;;-147.91;100.00;58652.34;5080087;27;46024;-80
2021/09/06 05:08:06;;;;;;;;;24.00;22.00;;;;;-147.91;100.00;58652.34;5067892;27;47285;-81
2021/09/06 05:10:32;;;;;;;;;26.25;23.00;;;;;-147.91;100.00;58652.34;5083966;27;46111;-80
2021/09/06 05:12:57;;;;;;;;;25.75;23.75;;;;;-147.91;100.00;58652.34;5080554;27;46010;-80
2021/09/06 05:15:23;;;;;;;;;26.00;25.00;;;;;-147.91;100.00;58652.34;5086001;27;46000;-80
2021/09/06 05:17:48;;;;;;;;;27.25;24.50;;;;;-147.91;100.00;58652.34;5081278;27;45499;-82
2021/09/06 05:20:14;;;;;;;;;26.50;23.25;;;;;-147.91;100.00;58652.34;5079698;27;45694;-78
2021/09/06 05:22:39;;;;;;;;;27.75;25.25;;;;;-147.91;100.00;58652.34;5085032;27;54342;-80
2021/09/06 05:25:05;;;;;;;;;29.25;23.50;;;;;-147.91;100.00;58652.34;5077226;27;45653;-82
2021/09/06 05:27:31;;;;;;;;;25.50;22.75;;;;;-147.91;100.00;58652.34;5081939;27;46331;-86
2021/09/06 05:29:56;;;;;;;;;23.75;22.00;;;;;-147.91;100.00;58652.34;5058508;27;45493;-88
2021/09/06 05:32:22;;;;;;;;;27.00;23.00;;;;;-147.91;100.00;58652.34;5055353;27;47200;-84
2021/09/06 05:34:47;;;;;;;;;22.00;21.50;;;;;-147.91;100.00;58652.34;5090332;27;45495;-84
2021/09/06 05:37:12;;;;;;;;;26.00;22.00;;;;;-147.91;100.00;58652.34;5077862;27;47875;-84
2021/09/06 05:39:38;;;;;;;;;27.00;24.00;;;;;-147.91;100.00;58652.34;5063019;27;45667;-85
2021/09/06 05:42:03;;;;;;;;;25.25;22.50;;;;;-147.91;100.00;58652.34;5090006;27;46482;-83
2021/09/06 05:44:29;;;;;;;;;22.50;22.00;;;;;-147.91;100.00;58652.34;5082170;27;45550;-83
2021/09/06 05:46:55;;;;;;;;;25.50;20.50;;;;;-147.91;100.00;58652.34;5086157;27;45713;-85
2021/09/06 05:49:20;;;;;;;;;26.25;22.50;;;;;-147.91;100.00;58652.34;5087667;27;45590;-84
2021/09/06 05:51:46;;;;;;;;;26.75;23.00;;;;;-147.91;100.00;58652.34;5086011;27;45596;-84
2021/09/06 05:54:11;;;;;;;;;24.25;23.25;;;;;-147.91;100.00;58652.34;5073500;27;45548;-84
2021/09/06 05:56:37;;;;;;;;;21.75;20.25;;;;;-147.91;100.00;58652.34;5085258;27;47767;-84
2021/09/06 05:59:02;;;;;;;;;22.75;21.50;;;;;-147.91;100.00;58652.34;5090208;27;45455;-85
2021/09/06 06:01:27;;;;;;;;;25.00;22.25;;;;;-147.91;100.00;58652.34;5088586;27;45578;-85
2021/09/06 06:03:53;;;;;;;;;27.75;23.75;;;;;-147.91;100.00;58652.34;5093546;27;45152;-84
2021/09/06 06:06:18;;;;;;;;;27.25;22.75;;;;;-147.91;100.00;58652.34;5072105;27;45552;-84
2021/09/06 06:08:44;;;;;;;;;26.25;21.50;;;;;-147.91;100.00;58652.34;5084551;27;46303;-84
2021/09/06 06:11:09;;;;;;;;;26.50;23.75;;;;;-147.91;100.00;58652.34;5083701;27;46378;-84
2021/09/06 06:13:35;;;;;;;;;23.50;22.50;;;;;-147.91;100.00;58652.34;5088372;27;52293;-79
2021/09/06 06:16:00;;;;;;;;;28.25;23.00;;;;;-147.91;100.00;58652.34;5086279;27;45956;-86
2021/09/06 06:18:26;;;;;;;;;26.25;22.25;;;;;-147.91;100.00;58652.34;5085037;27;45929;-86
2021/09/06 06:20:51;;;;;;;;;28.75;25.50;;;;;-147.91;100.00;58652.34;5075388;27;46205;-87
2021/09/06 06:23:16;;;;;;;;;26.00;21.75;;;;;-147.91;100.00;58652.34;5071312;27;45639;-87
2021/09/06 06:25:42;;;;;;;;;30.25;24.00;;;;;-147.91;100.00;58652.34;5078367;27;45796;-87
2021/09/06 06:28:08;;;;;;;;;28.50;24.50;;;;;-147.91;100.00;58652.34;5073904;27;45864;-87
2021/09/06 06:30:33;;;;;;;;;33.25;28.50;;;;;-147.91;100.00;58652.34;5069830;27;48295;-87
2021/09/06 06:32:59;;;;;;;;;33.75;27.75;;;;;-147.91;100.00;58652.34;5080519;27;45677;-86
2021/09/06 06:35:24;;;;;;;;;27.75;26.50;;;;;-147.91;100.00;58652.34;5052412;27;45636;-86
2021/09/06 06:37:50;;;;;;;;;29.50;29.00;;;;;-147.91;100.00;58652.34;5065639;27;45612;-87
2021/09/06 06:40:15;;;;;;;;;31.00;26.00;;;;;-147.91;100.00;58652.34;5079008;27;46014;-86
2021/09/06 06:42:41;;;;;;;;;26.25;21.75;;;;;-147.91;100.00;58652.34;5078808;27;45788;-87
2021/09/06 06:45:06;;;;;;;;;27.75;26.25;;;;;-147.91;100.00;58652.34;5059469;27;45696;-87
2021/09/06 06:47:32;;;;;;;;;31.50;27.50;;;;;-147.91;100.00;58652.34;5071386;27;45607;-86
2021/09/06 06:49:57;;;;;;;;;29.50;26.50;;;;;-147.91;100.00;58652.34;5081038;27;45707;-87
2021/09/06 06:52:22;;;;;;;;;28.75;25.25;;;;;-147.91;100.00;58652.34;5077781;27;45967;-87
2021/09/06 06:54:48;;;;;;;;;29.00;24.50;;;;;-147.91;100.00;58652.34;5056438;27;45848;-88
2021/09/06 06:57:13;;;;;;;;;31.50;26.00;;;;;-147.91;100.00;58652.34;5083975;27;46569;-87
2021/09/06 06:59:39;;;;;;;;;29.75;28.50;;;;;-147.91;100.00;58652.34;5078724;27;45858;-87
2021/09/06 07:02:05;;;;;;;;;27.25;25.75;;;;;-147.91;100.00;58652.34;5057586;27;45672;-88
2021/09/06 07:04:30;;;;;;;;;32.25;26.75;;;;;-147.91;100.00;58652.34;5081321;27;45524;-87
2021/09/06 07:06:55;;;;;;;;;29.00;27.25;;;;;-147.91;100.00;58652.34;5059092;27;45722;-86
2021/09/06 07:09:21;;;;;;;;;31.00;24.75;;;;;-147.91;100.00;58652.34;5066590;27;47424;-85
2021/09/06 07:11:46;;;;;;;;;25.50;24.25;;;;;-147.91;100.00;58652.34;5059739;27;45915;-83
2021/09/06 07:14:12;;;;;;;;;26.50;23.25;;;;;-147.91;100.00;58652.34;5083824;27;45476;-87
2021/09/06 07:16:37;;;;;;;;;27.00;25.00;;;;;-147.91;100.00;58652.34;5082152;27;45482;-86
2021/09/06 07:19:02;;;;;;;;;23.75;22.75;;;;;-147.91;100.00;58652.34;5074107;27;48363;-85
2021/09/06 07:21:28;;;;;;;;;24.75;21.50;;;;;-147.91;100.00;58652.34;5082376;27;45630;-82
2021/09/06 07:23:53;;;;;;;;;25.50;21.25;;;;;-147.91;100.00;58652.34;5060114;27;51887;-84
2021/09/06 07:26:19;;;;;;;;;22.50;19.75;;;;;-147.91;100.00;58652.34;5077551;27;48973;-82
2021/09/06 07:28:59;;;;;;;;;21.00;20.50;;;;;-147.91;100.00;58652.34;5062021;27;46141;-83
2021/09/06 07:31:28;;;;;;;;;21.50;20.00;;;;;-147.91;100.00;58652.34;5078658;27;46076;-83
2021/09/06 07:33:53;;;;;;;;;22.75;18.00;;;;;-147.91;100.00;58652.34;5064775;27;45600;-85
2021/09/06 07:36:18;;;;;;;;;20.50;19.00;;;;;-147.91;100.00;58652.34;5087027;27;45381;-86
2021/09/06 07:41:15;;;;;;;;;21.00;19.00;;;;;-147.91;100.00;58652.34;5033890;28;46148;-85
2021/09/06 07:43:59;;;;;;;;;21.75;18.50;;;;;-147.91;100.00;58652.34;5019759;28;50891;-90
2021/09/06 07:46:25;;;;;;;;;22.00;19.00;;;;;-147.91;100.00;58652.34;5032736;28;45713;-88
2021/09/06 07:48:50;;;;;;;;;20.25;19.00;;;;;-147.91;100.00;58652.34;5038084;28;46374;-87
2021/09/06 07:51:19;;;;;;;;;21.75;20.75;;;;;-147.91;100.00;58652.34;5130191;22;45459;-96
2021/09/06 07:53:46;;;;;;;;;20.00;17.25;;;;;-147.91;100.00;58652.34;5107315;27;45466;-96
2021/09/06 07:56:14;;;;;;;;;20.50;18.25;;;;;-147.91;100.00;58652.34;5095565;27;45246;-96
2021/09/06 07:58:43;;;;;;;;;18.25;17.75;;;;;-147.91;100.00;58652.34;5094488;27;45579;-96
2021/09/06 08:01:11;;;;;;;;;20.00;19.00;;;;;-147.91;100.00;58652.34;5113993;27;44791;-96
2021/09/06 08:03:39;;;;;;;;;25.00;19.00;;;;;-147.91;100.00;58652.34;5101258;27;45245;-96
2021/09/06 08:06:06;;;;;;;;;23.50;17.50;;;;;-147.91;100.00;58652.34;5091594;27;45603;-96
2021/09/06 08:08:33;;;;;;;;;19.25;18.75;;;;;-147.91;100.00;58652.34;5086635;27;45384;-96
2021/09/06 08:11:00;;;;;;;;;21.25;19.25;;;;;-147.91;100.00;58652.34;5088943;27;45351;-96
2021/09/06 08:13:29;;;;;;;;;22.50;19.75;;;;;-147.91;100.00;58652.34;5107378;27;45194;-96
2021/09/06 08:15:57;;;;;;;;;22.00;19.50;;;;;-147.91;100.00;58652.34;5107689;27;45356;-96
2021/09/06 08:18:24;;;;;;;;;20.50;19.50;;;;;-147.91;100.00;58652.34;5104637;27;45520;-95
2021/09/06 08:20:51;;;;;;;;;20.25;18.50;;;;;-147.91;100.00;58652.34;5104290;27;45191;-95
2021/09/06 08:23:23;;;;;;;;;20.00;17.00;;;;;-147.91;100.00;58652.34;5090665;27;45281;-96
2021/09/06 08:25:52;;;;;;;;;16.00;15.25;;;;;-147.91;100.00;58652.34;5089588;27;45533;-96
2021/09/06 08:28:19;;;;;;;;;19.50;16.50;;;;;-147.91;100.00;58652.34;5104723;27;45800;-94
2021/09/06 08:30:47;;;;;;;;;17.00;17.00;;;;;-147.91;100.00;58652.34;5108566;27;45346;-96
2021/09/06 08:33:18;;;;;;;;;17.25;15.75;;;;;-147.91;100.00;58652.34;5090176;27;45299;-96
2021/09/06 08:36:29;;;;;;;;;19.00;15.75;;;;;-147.91;100.00;58652.34;5108712;27;45131;-96
2021/09/06 08:38:57;;;;;;;;;19.00;15.25;;;;;-147.91;100.00;58652.34;5105694;27;45703;-95
2021/09/06 08:41:25;;;;;;;;;21.75;17.50;;;;;-147.91;100.00;58652.34;5105353;27;45237;-95
2021/09/06 08:43:55;;;;;;;;;22.00;15.75;;;;;-147.91;100.00;58652.34;5092538;27;45268;-96
2021/09/06 08:46:24;;;;;;;;;20.50;18.00;;;;;-147.91;100.00;58652.34;5080034;27;45216;-96
2021/09/06 08:51:23;;;;;;;;;19.00;15.00;;;;;-147.91;100.00;58652.34;5028258;28;45429;-80
2021/09/06 08:53:49;;;;;;;;;19.25;16.00;;;;;-147.91;100.00;58652.34;5015922;28;45610;-80
2021/09/06 08:56:15;;;;;;;;;17.25;13.75;;;;;-147.91;100.00;58652.34;4996459;28;46045;-80
2021/09/06 08:58:41;;;;;;;;;20.50;16.25;;;;;-147.91;100.00;58652.34;5016897;28;46755;-80
2021/09/06 09:01:06;;;;;;;;;16.75;15.75;;;;;-147.91;100.00;58652.34;5017443;28;45672;-80
2021/09/06 09:03:32;;;;;;;;;16.50;16.50;;;;;-147.91;100.00;58652.34;5018780;28;45513;-81
2021/09/06 09:06:02;;;;;;;;;20.00;16.00;;;;;-147.91;100.00;58652.34;5019785;28;45758;-81
2021/09/06 09:08:27;;;;;;;;;16.25;15.50;;;;;-147.91;100.00;58652.34;5000980;28;45709;-79
2021/09/06 09:11:05;;;;;;;;;17.00;16.25;;;;;-147.91;100.00;58652.34;5015340;28;45550;-79
2021/09/06 09:13:32;;;;;;;;;19.50;16.75;;;;;-147.91;100.00;58652.34;4998603;28;45694;-79
2021/09/06 09:15:58;;;;;;;;;17.00;14.75;;;;;-147.91;100.00;58652.34;5016599;28;45495;-79
2021/09/06 09:18:26;;;;;;;;;17.25;14.75;;;;;-147.91;100.00;58652.34;5018786;28;45502;-79
2021/09/06 09:21:07;;;;;;;;;19.75;14.75;;;;;-147.91;100.00;58652.34;5012085;28;45479;-79
2021/09/06 09:23:47;;;;;;;;;14.25;14.25;;;;;-147.91;100.00;58652.34;5019970;28;46801;-81
2021/09/06 09:26:17;;;;;;;;;16.50;15.00;;;;;-147.91;100.00;58652.34;5078389;22;45547;-96
2021/09/06 09:28:45;;;;;;;;;14.00;13.00;;;;;-147.91;100.00;58652.34;5065918;28;47855;-96
2021/09/06 09:31:19;;;;;;;;;14.25;13.50;;;;;-147.91;100.00;58652.34;5084102;28;45470;-94
2021/09/06 09:33:47;;;;;;;;;17.25;15.75;;;;;-147.91;100.00;58652.34;5095270;22;45885;-81
2021/09/06 09:39:01;;;;;;;;;15.00;15.00;;;;;-147.91;100.00;58652.34;5338179;22;46111;-96
2021/09/06 09:41:34;;;;;;;;;12.25;12.25;;;;;-147.91;100.00;58652.34;5095475;27;45155;-96
2021/09/06 09:44:12;;;;;;;;;13.00;11.50;;;;;-147.91;100.00;58652.34;5087218;27;45263;-93
2021/09/06 09:46:38;;;;;;;;;14.50;13.00;;;;;-147.91;100.00;58652.34;5138348;22;45446;-81
2021/09/06 09:49:12;;;;;;;;;13.75;10.75;;;;;-147.91;100.00;58652.34;5064621;27;46714;-80
2021/09/06 09:51:38;;;;;;;;;13.25;12.50;;;;;-147.91;100.00;58652.34;5052920;27;46457;-80
2021/09/06 09:54:05;;;;;;;;;15.50;13.75;;;;;-147.91;100.00;58652.34;5053870;28;45628;-80
2021/09/06 09:56:31;;;;;;;;;14.00;13.50;;;;;-147.91;100.00;58652.34;5053813;27;45599;-81
2021/09/06 09:58:58;;;;;;;;;14.75;14.25;;;;;-147.91;100.00;58652.34;5050127;28;46374;-81
2021/09/06 10:01:27;;;;;;;;;16.50;14.00;;;;;-147.91;100.00;58652.34;5051973;28;46030;-81
2021/09/06 10:03:55;;;;;;;;;15.50;14.50;;;;;-147.91;100.00;58652.34;5043155;27;45599;-80
2021/09/06 10:06:20;;;;;;;;;14.00;13.75;;;;;-147.91;100.00;58652.34;5052054;28;45232;-81
2021/09/06 10:08:46;;;;;;;;;16.50;14.00;;;;;-147.91;100.00;58652.34;5057389;27;45545;-80
2021/09/06 10:11:12;;;;;;;;;15.50;12.75;;;;;-147.91;100.00;58652.34;5070870;27;45492;-80
2021/09/06 10:13:42;;;;;;;;;13.50;13.00;;;;;-147.91;100.00;58652.34;5067361;27;45523;-81
2021/09/06 10:16:07;;;;;;;;;17.00;13.25;;;;;-147.91;100.00;58652.34;5070530;27;45610;-80
2021/09/06 10:18:38;;;;;;;;;15.75;13.25;;;;;-147.91;100.00;58652.34;5050815;27;46643;-80
2021/09/06 10:21:16;;;;;;;;;13.25;12.25;;;;;-147.91;100.00;58652.34;5083829;27;45515;-80
2021/09/06 10:23:43;;;;;;;;;15.50;12.00;;;;;-147.91;100.00;58652.34;5057309;27;46845;-80
2021/09/06 10:26:09;;;;;;;;;12.50;12.00;;;;;-147.91;100.00;58652.34;5071254;27;45615;-80
2021/09/06 10:28:35;;;;;;;;;10.00;10.00;;;;;-147.91;100.00;58652.34;5076207;27;46588;-81
2021/09/06 10:31:02;;;;;;;;;14.25;13.00;;;;;-147.91;100.00;58652.34;5069281;27;48688;-80
2021/09/06 10:33:32;;;;;;;;;14.25;13.00;;;;;-147.91;100.00;58652.34;5075712;27;45401;-81
2021/09/06 10:36:17;;;;;;;;;14.00;13.00;;;;;-147.91;100.00;58652.34;5074355;27;46458;-81
2021/09/06 10:38:44;;;;;;;;;13.25;12.50;;;;;-147.91;100.00;58652.34;5074910;27;46640;-81
2021/09/06 10:41:18;;;;;;;;;13.50;13.00;;;;;-147.91;100.00;58652.34;5066434;27;48558;-81
2021/09/06 10:43:48;;;;;;;;;11.25;10.75;;;;;-147.91;100.00;58652.34;5072098;27;45640;-81
2021/09/06 10:46:15;;;;;;;;;14.00;11.50;;;;;-147.91;100.00;58652.34;5061924;27;45707;-81
2021/09/06 10:48:41;;;;;;;;;13.50;11.00;;;;;-147.91;100.00;58652.34;5070443;27;45639;-81
2021/09/06 10:51:06;;;;;;;;;19.00;14.75;;;;;-147.91;100.00;58652.34;5066758;27;45508;-81
2021/09/06 10:53:32;;;;;;;;;16.50;13.75;;;;;-147.91;100.00;58652.34;5053247;27;51685;-81
2021/09/06 10:55:59;;;;;;;;;12.50;12.50;;;;;-147.91;100.00;58652.34;5074827;27;45613;-81
2021/09/06 10:58:27;;;;;;;;;13.25;11.75;;;;;-147.91;100.00;58652.34;5054462;27;47195;-80
2021/09/06 11:00:57;;;;;;;;;13.50;12.75;;;;;-147.91;100.00;58652.34;5069125;27;46172;-81